sensor_id;sensor_type;location;lat;lon;timestamp;pressure;altitude;pressure_sealevel;temperature;humidity
66762;BME280;53672;48.176;16.338;2022-07-10T00:04:14;99447.78;;;15.58;92.10
66762;BME280;53672;48.176;16.338;2022-07-10T00:09:14;99453.00;;;15.55;92.39
66762;BME280;53672;48.176;16.338;2022-07-10T00:14:16;99442.84;;;15.47;92.78
66762;BME280;53672;48.176;16.338;2022-07-10T00:19:17;99446.97;;;15.44;92.93
66762;BME280;53672;48.176;16.338;2022-07-10T00:24:17;99445.84;;;15.45;92.93
66762;BME280;53672;48.176;16.338;2022-07-10T00:29:19;99440.84;;;15.39;93.58
66762;BME280;53672;48.176;16.338;2022-07-10T00:34:19;99441.78;;;15.34;93.52
66762;BME280;53672;48.176;16.338;2022-07-10T00:39:20;99433.91;;;15.33;93.51
66762;BME280;53672;48.176;16.338;2022-07-10T00:44:22;99420.94;;;15.30;93.69
66762;BME280;53672;48.176;16.338;2022-07-10T00:49:22;99429.69;;;15.27;93.98
66762;BME280;53672;48.176;16.338;2022-07-10T00:54:22;99414.59;;;15.20;94.16
66762;BME280;53672;48.176;16.338;2022-07-10T00:59:25;99420.03;;;15.20;94.54
66762;BME280;53672;48.176;16.338;2022-07-10T01:04:26;99410.59;;;15.18;94.34
66762;BME280;53672;48.176;16.338;2022-07-10T01:09:27;99404.47;;;15.12;94.39
66762;BME280;53672;48.176;16.338;2022-07-10T01:14:29;99409.09;;;15.12;94.54
66762;BME280;53672;48.176;16.338;2022-07-10T01:19:30;99402.03;;;15.11;94.18
66762;BME280;53672;48.176;16.338;2022-07-10T01:24:32;99395.03;;;15.10;94.18
66762;BME280;53672;48.176;16.338;2022-07-10T01:29:32;99385.56;;;15.07;94.29
66762;BME280;53672;48.176;16.338;2022-07-10T01:34:34;99387.16;;;15.08;94.13
66762;BME280;53672;48.176;16.338;2022-07-10T01:39:36;99388.19;;;15.12;93.83
66762;BME280;53672;48.176;16.338;2022-07-10T01:44:36;99377.94;;;15.09;93.50
66762;BME280;53672;48.176;16.338;2022-07-10T01:49:37;99374.22;;;15.05;93.46
66762;BME280;53672;48.176;16.338;2022-07-10T01:54:39;99370.81;;;15.00;93.46
66762;BME280;53672;48.176;16.338;2022-07-10T01:59:40;99359.75;;;14.96;93.68
66762;BME280;53672;48.176;16.338;2022-07-10T02:04:40;99364.03;;;14.97;93.64
66762;BME280;53672;48.176;16.338;2022-07-10T02:09:42;99355.41;;;14.95;93.42
66762;BME280;53672;48.176;16.338;2022-07-10T02:14:43;99360.84;;;14.95;93.17
66762;BME280;53672;48.176;16.338;2022-07-10T02:19:43;99352.19;;;14.93;92.92
66762;BME280;53672;48.176;16.338;2022-07-10T02:24:45;99356.84;;;14.93;92.83
66762;BME280;53672;48.176;16.338;2022-07-10T02:29:46;99351.69;;;14.91;92.69
66762;BME280;53672;48.176;16.338;2022-07-10T02:34:46;99351.00;;;14.86;92.82
66762;BME280;53672;48.176;16.338;2022-07-10T02:39:48;99346.47;;;14.81;92.55
66762;BME280;53672;48.176;16.338;2022-07-10T02:44:48;99354.22;;;14.74;92.99
66762;BME280;53672;48.176;16.338;2022-07-10T02:49:49;99349.59;;;14.75;92.94
66762;BME280;53672;48.176;16.338;2022-07-10T02:54:50;99352.59;;;14.73;92.82
66762;BME280;53672;48.176;16.338;2022-07-10T02:59:51;99356.72;;;14.70;92.90
66762;BME280;53672;48.176;16.338;2022-07-10T03:04:51;99354.81;;;14.71;92.95
66762;BME280;53672;48.176;16.338;2022-07-10T03:09:53;99351.50;;;14.74;92.78
66762;BME280;53672;48.176;16.338;2022-07-10T03:14:54;99353.00;;;14.80;92.60
66762;BME280;53672;48.176;16.338;2022-07-10T03:19:54;99346.19;;;14.83;92.56
66762;BME280;53672;48.176;16.338;2022-07-10T03:24:57;99361.16;;;14.80;92.35
66762;BME280;53672;48.176;16.338;2022-07-10T03:29:57;99353.31;;;14.79;92.54
66762;BME280;53672;48.176;16.338;2022-07-10T03:34:58;99360.53;;;14.83;92.92
66762;BME280;53672;48.176;16.338;2022-07-10T03:40:00;99358.34;;;14.85;92.80
66762;BME280;53672;48.176;16.338;2022-07-10T03:45:00;99351.22;;;14.89;92.70
66762;BME280;53672;48.176;16.338;2022-07-10T03:50:01;99354.59;;;14.95;92.33
66762;BME280;53672;48.176;16.338;2022-07-10T03:55:03;99343.94;;;14.98;92.04
66762;BME280;53672;48.176;16.338;2022-07-10T04:00:05;99337.31;;;15.04;91.53
66762;BME280;53672;48.176;16.338;2022-07-10T04:05:05;99349.97;;;15.09;91.61
66762;BME280;53672;48.176;16.338;2022-07-10T04:10:08;99352.56;;;15.14;91.33
66762;BME280;53672;48.176;16.338;2022-07-10T04:15:09;99359.50;;;15.20;90.99
66762;BME280;53672;48.176;16.338;2022-07-10T04:20:10;99357.19;;;15.27;90.69
66762;BME280;53672;48.176;16.338;2022-07-10T04:25:13;99356.16;;;15.37;90.34
66762;BME280;53672;48.176;16.338;2022-07-10T04:30:13;99357.53;;;15.48;89.71
66762;BME280;53672;48.176;16.338;2022-07-10T04:35:13;99347.03;;;15.55;88.89
66762;BME280;53672;48.176;16.338;2022-07-10T04:40:15;99353.84;;;15.66;88.63
66762;BME280;53672;48.176;16.338;2022-07-10T04:45:16;99343.69;;;15.71;88.38
66762;BME280;53672;48.176;16.338;2022-07-10T04:50:16;99349.16;;;15.80;88.09
66762;BME280;53672;48.176;16.338;2022-07-10T04:55:18;99335.31;;;15.90;87.70
66762;BME280;53672;48.176;16.338;2022-07-10T05:00:19;99335.56;;;16.02;87.06
66762;BME280;53672;48.176;16.338;2022-07-10T05:05:19;99337.25;;;16.20;86.22
66762;BME280;53672;48.176;16.338;2022-07-10T05:10:21;99340.88;;;16.38;85.65
66762;BME280;53672;48.176;16.338;2022-07-10T05:15:22;99335.84;;;16.54;84.46
66762;BME280;53672;48.176;16.338;2022-07-10T05:20:22;99342.78;;;16.68;82.86
66762;BME280;53672;48.176;16.338;2022-07-10T05:25:24;99337.84;;;16.79;82.29
66762;BME280;53672;48.176;16.338;2022-07-10T05:30:25;99346.69;;;16.85;81.05
66762;BME280;53672;48.176;16.338;2022-07-10T05:35:25;99350.88;;;16.91;80.30
66762;BME280;53672;48.176;16.338;2022-07-10T05:40:27;99355.22;;;17.00;80.17
66762;BME280;53672;48.176;16.338;2022-07-10T05:45:27;99357.81;;;17.05;79.05
66762;BME280;53672;48.176;16.338;2022-07-10T05:50:28;99369.50;;;17.14;78.77
66762;BME280;53672;48.176;16.338;2022-07-10T05:55:30;99360.06;;;17.20;77.80
66762;BME280;53672;48.176;16.338;2022-07-10T06:00:30;99355.75;;;17.28;77.76
66762;BME280;53672;48.176;16.338;2022-07-10T06:05:31;99360.09;;;17.38;76.87
66762;BME280;53672;48.176;16.338;2022-07-10T06:10:33;99369.53;;;17.40;77.35
66762;BME280;53672;48.176;16.338;2022-07-10T06:15:33;99366.81;;;17.40;77.69
66762;BME280;53672;48.176;16.338;2022-07-10T06:20:33;99368.59;;;17.36;76.80
66762;BME280;53672;48.176;16.338;2022-07-10T06:25:35;99369.22;;;17.33;76.02
66762;BME280;53672;48.176;16.338;2022-07-10T06:30:36;99370.00;;;17.34;76.28
66762;BME280;53672;48.176;16.338;2022-07-10T06:35:36;99366.97;;;17.35;75.71
66762;BME280;53672;48.176;16.338;2022-07-10T06:40:38;99360.56;;;17.48;75.31
66762;BME280;53672;48.176;16.338;2022-07-10T06:45:39;99365.09;;;17.61;74.38
66762;BME280;53672;48.176;16.338;2022-07-10T06:50:39;99370.38;;;17.75;74.17
66762;BME280;53672;48.176;16.338;2022-07-10T06:55:42;99368.44;;;18.10;71.98
66762;BME280;53672;48.176;16.338;2022-07-10T07:00:42;99371.22;;;18.48;72.04
66762;BME280;53672;48.176;16.338;2022-07-10T07:05:43;99375.69;;;18.61;68.26
66762;BME280;53672;48.176;16.338;2022-07-10T07:10:44;99368.16;;;18.49;69.53
66762;BME280;53672;48.176;16.338;2022-07-10T07:15:45;99366.94;;;18.38;68.56
66762;BME280;53672;48.176;16.338;2022-07-10T07:20:45;99364.34;;;18.50;67.56
66762;BME280;53672;48.176;16.338;2022-07-10T07:25:47;99365.00;;;18.85;67.03
66762;BME280;53672;48.176;16.338;2022-07-10T07:30:48;99366.94;;;19.14;64.06
66762;BME280;53672;48.176;16.338;2022-07-10T07:35:49;99362.47;;;19.30;62.87
66762;BME280;53672;48.176;16.338;2022-07-10T07:40:50;99364.94;;;19.23;62.93
66762;BME280;53672;48.176;16.338;2022-07-10T07:45:51;99367.31;;;19.04;65.72
66762;BME280;53672;48.176;16.338;2022-07-10T07:50:51;99370.41;;;18.47;71.00
66762;BME280;53672;48.176;16.338;2022-07-10T07:55:53;99388.34;;;17.93;73.47
66762;BME280;53672;48.176;16.338;2022-07-10T08:00:54;99389.63;;;17.61;74.97
66762;BME280;53672;48.176;16.338;2022-07-10T08:05:54;99403.19;;;17.18;79.17
66762;BME280;53672;48.176;16.338;2022-07-10T08:10:56;99398.00;;;16.60;79.60
66762;BME280;53672;48.176;16.338;2022-07-10T08:15:56;99404.38;;;16.56;87.02
66762;BME280;53672;48.176;16.338;2022-07-10T08:20:57;99407.19;;;16.51;86.89
66762;BME280;53672;48.176;16.338;2022-07-10T08:25:59;99402.91;;;16.28;84.22
66762;BME280;53672;48.176;16.338;2022-07-10T08:30:59;99403.72;;;16.28;86.39
66762;BME280;53672;48.176;16.338;2022-07-10T08:36:00;99401.06;;;16.37;86.26
66762;BME280;53672;48.176;16.338;2022-07-10T08:41:05;99408.16;;;16.46;84.92
66762;BME280;53672;48.176;16.338;2022-07-10T08:46:05;99391.66;;;16.73;83.18
66762;BME280;53672;48.176;16.338;2022-07-10T08:51:07;99394.09;;;16.92;78.99
66762;BME280;53672;48.176;16.338;2022-07-10T08:56:12;99396.53;;;17.02;77.93
66762;BME280;53672;48.176;16.338;2022-07-10T09:01:12;99397.22;;;17.16;76.02
66762;BME280;53672;48.176;16.338;2022-07-10T09:06:13;99395.53;;;17.46;77.01
66762;BME280;53672;48.176;16.338;2022-07-10T09:11:15;99398.25;;;17.38;74.15
66762;BME280;53672;48.176;16.338;2022-07-10T09:16:21;99385.63;;;17.85;73.78
66762;BME280;53672;48.176;16.338;2022-07-10T09:21:22;99379.00;;;18.29;72.52
66762;BME280;53672;48.176;16.338;2022-07-10T09:26:24;99387.06;;;18.71;67.54
66762;BME280;53672;48.176;16.338;2022-07-10T09:31:25;99385.94;;;19.10;66.28
66762;BME280;53672;48.176;16.338;2022-07-10T09:36:25;99380.72;;;19.47;65.15
66762;BME280;53672;48.176;16.338;2022-07-10T09:41:28;99387.38;;;19.99;62.23
66762;BME280;53672;48.176;16.338;2022-07-10T09:46:31;99390.59;;;19.81;61.65
66762;BME280;53672;48.176;16.338;2022-07-10T09:51:33;99382.78;;;19.50;63.42
66762;BME280;53672;48.176;16.338;2022-07-10T09:56:45;99366.38;;;19.50;61.99
66762;BME280;53672;48.176;16.338;2022-07-10T10:01:48;99377.19;;;19.46;62.21
66762;BME280;53672;48.176;16.338;2022-07-10T10:06:51;99368.19;;;19.66;60.76
66762;BME280;53672;48.176;16.338;2022-07-10T10:11:57;99352.28;;;20.34;62.60
66762;BME280;53672;48.176;16.338;2022-07-10T10:16:58;99361.56;;;21.02;56.67
66762;BME280;53672;48.176;16.338;2022-07-10T10:22:01;99343.84;;;21.24;53.75
66762;BME280;53672;48.176;16.338;2022-07-10T10:27:04;99359.28;;;21.16;56.03
66762;BME280;53672;48.176;16.338;2022-07-10T10:32:07;99361.13;;;21.12;53.40
66762;BME280;53672;48.176;16.338;2022-07-10T10:37:32;99347.84;;;21.39;52.22
66762;BME280;53672;48.176;16.338;2022-07-10T10:42:36;99344.59;;;21.61;54.67
66762;BME280;53672;48.176;16.338;2022-07-10T10:47:57;99340.53;;;21.43;53.33
66762;BME280;53672;48.176;16.338;2022-07-10T10:52:59;99332.81;;;21.88;52.76
66762;BME280;53672;48.176;16.338;2022-07-10T10:58:15;99338.06;;;21.93;51.19
66762;BME280;53672;48.176;16.338;2022-07-10T11:03:20;99324.00;;;21.67;51.25
66762;BME280;53672;48.176;16.338;2022-07-10T11:08:41;99330.09;;;21.48;50.63
66762;BME280;53672;48.176;16.338;2022-07-10T11:13:43;99328.78;;;21.30;50.71
66762;BME280;53672;48.176;16.338;2022-07-10T11:18:46;99328.09;;;20.97;49.03
66762;BME280;53672;48.176;16.338;2022-07-10T11:23:56;99324.75;;;21.40;49.17
66762;BME280;53672;48.176;16.338;2022-07-10T11:29:03;99319.50;;;21.47;49.09
66762;BME280;53672;48.176;16.338;2022-07-10T11:34:03;99335.72;;;21.40;48.39
66762;BME280;53672;48.176;16.338;2022-07-10T11:39:05;99325.25;;;20.93;50.21
66762;BME280;53672;48.176;16.338;2022-07-10T11:44:13;99332.69;;;20.68;49.47
66762;BME280;53672;48.176;16.338;2022-07-10T11:49:13;99323.69;;;20.68;48.31
66762;BME280;53672;48.176;16.338;2022-07-10T11:54:15;99327.88;;;20.65;48.03
66762;BME280;53672;48.176;16.338;2022-07-10T11:59:18;99319.78;;;20.93;47.70
66762;BME280;53672;48.176;16.338;2022-07-10T12:04:20;99312.63;;;22.08;45.61
66762;BME280;53672;48.176;16.338;2022-07-10T12:09:22;99316.31;;;23.10;44.57
66762;BME280;53672;48.176;16.338;2022-07-10T12:14:25;99293.75;;;24.16;42.34
66762;BME280;53672;48.176;16.338;2022-07-10T12:19:27;99300.56;;;24.03;38.64
66762;BME280;53672;48.176;16.338;2022-07-10T12:24:29;99308.94;;;23.49;37.50
66762;BME280;53672;48.176;16.338;2022-07-10T12:29:30;99312.59;;;23.37;38.88
66762;BME280;53672;48.176;16.338;2022-07-10T12:34:34;99307.25;;;23.09;39.73
66762;BME280;53672;48.176;16.338;2022-07-10T12:39:36;99293.34;;;23.95;38.34
66762;BME280;53672;48.176;16.338;2022-07-10T12:44:40;99283.72;;;24.27;35.93
66762;BME280;53672;48.176;16.338;2022-07-10T12:49:48;99293.72;;;24.84;39.45
66762;BME280;53672;48.176;16.338;2022-07-10T12:54:49;99292.22;;;24.64;35.41
66762;BME280;53672;48.176;16.338;2022-07-10T13:00:07;99298.91;;;24.17;35.96
66762;BME280;53672;48.176;16.338;2022-07-10T13:05:08;99299.38;;;24.46;35.64
66762;BME280;53672;48.176;16.338;2022-07-10T13:10:08;99309.06;;;24.59;36.41
66762;BME280;53672;48.176;16.338;2022-07-10T13:15:10;99305.75;;;23.85;38.21
66762;BME280;53672;48.176;16.338;2022-07-10T13:20:11;99313.22;;;24.49;35.67
66762;BME280;53672;48.176;16.338;2022-07-10T13:25:11;99299.59;;;24.34;35.87
66762;BME280;53672;48.176;16.338;2022-07-10T13:30:13;99300.94;;;24.20;36.46
66762;BME280;53672;48.176;16.338;2022-07-10T13:35:14;99308.47;;;24.23;36.45
66762;BME280;53672;48.176;16.338;2022-07-10T13:40:14;99310.00;;;24.44;32.43
66762;BME280;53672;48.176;16.338;2022-07-10T13:45:16;99316.84;;;24.11;33.16
66762;BME280;53672;48.176;16.338;2022-07-10T13:50:17;99320.06;;;23.94;34.83
66762;BME280;53672;48.176;16.338;2022-07-10T13:55:18;99317.41;;;23.79;35.24
66762;BME280;53672;48.176;16.338;2022-07-10T14:00:19;99315.38;;;23.56;35.33
66762;BME280;53672;48.176;16.338;2022-07-10T14:05:20;99317.63;;;23.51;34.13
66762;BME280;53672;48.176;16.338;2022-07-10T14:10:21;99308.41;;;23.08;36.35
66762;BME280;53672;48.176;16.338;2022-07-10T14:15:23;99335.69;;;22.98;38.70
66762;BME280;53672;48.176;16.338;2022-07-10T14:20:24;99327.28;;;22.75;36.71
66762;BME280;53672;48.176;16.338;2022-07-10T14:25:26;99339.59;;;22.50;37.43
66762;BME280;53672;48.176;16.338;2022-07-10T14:30:28;99328.75;;;22.57;37.64
66762;BME280;53672;48.176;16.338;2022-07-10T14:35:29;99321.13;;;22.35;34.49
66762;BME280;53672;48.176;16.338;2022-07-10T14:40:29;99319.88;;;22.16;38.04
66762;BME280;53672;48.176;16.338;2022-07-10T14:45:31;99324.47;;;22.12;36.26
66762;BME280;53672;48.176;16.338;2022-07-10T14:50:33;99328.69;;;21.94;35.47
66762;BME280;53672;48.176;16.338;2022-07-10T14:55:34;99308.59;;;21.90;37.91
66762;BME280;53672;48.176;16.338;2022-07-10T15:00:35;99322.06;;;21.83;37.38
66762;BME280;53672;48.176;16.338;2022-07-10T15:05:36;99325.56;;;21.68;36.13
66762;BME280;53672;48.176;16.338;2022-07-10T15:10:36;99326.75;;;21.55;36.46
66762;BME280;53672;48.176;16.338;2022-07-10T15:15:38;99334.28;;;21.30;34.83
66762;BME280;53672;48.176;16.338;2022-07-10T15:20:38;99333.59;;;21.21;35.76
66762;BME280;53672;48.176;16.338;2022-07-10T15:25:39;99333.13;;;21.07;36.89
66762;BME280;53672;48.176;16.338;2022-07-10T15:30:41;99347.53;;;20.92;36.94
66762;BME280;53672;48.176;16.338;2022-07-10T15:35:41;99340.66;;;20.86;37.53
66762;BME280;53672;48.176;16.338;2022-07-10T15:40:42;99346.03;;;20.70;38.21
66762;BME280;53672;48.176;16.338;2022-07-10T15:45:44;99338.06;;;20.65;39.22
66762;BME280;53672;48.176;16.338;2022-07-10T15:50:44;99351.84;;;20.56;38.05
66762;BME280;53672;48.176;16.338;2022-07-10T15:55:45;99346.69;;;20.43;39.25
66762;BME280;53672;48.176;16.338;2022-07-10T16:00:46;99353.41;;;20.45;39.13
66762;BME280;53672;48.176;16.338;2022-07-10T16:05:47;99359.56;;;20.30;38.74
66762;BME280;53672;48.176;16.338;2022-07-10T16:10:47;99354.38;;;20.16;39.84
66762;BME280;53672;48.176;16.338;2022-07-10T16:15:49;99355.19;;;20.17;39.96
66762;BME280;53672;48.176;16.338;2022-07-10T16:20:50;99362.09;;;20.14;39.31
66762;BME280;53672;48.176;16.338;2022-07-10T16:25:51;99366.53;;;20.07;39.16
66762;BME280;53672;48.176;16.338;2022-07-10T16:30:52;99374.31;;;19.84;39.92
66762;BME280;53672;48.176;16.338;2022-07-10T16:35:53;99377.53;;;19.86;41.07
66762;BME280;53672;48.176;16.338;2022-07-10T16:40:54;99372.97;;;19.90;41.76
66762;BME280;53672;48.176;16.338;2022-07-10T16:45:56;99371.84;;;19.91;40.84
66762;BME280;53672;48.176;16.338;2022-07-10T16:50:57;99377.91;;;19.76;41.60
66762;BME280;53672;48.176;16.338;2022-07-10T16:55:58;99372.34;;;19.52;41.89
66762;BME280;53672;48.176;16.338;2022-07-10T17:00:59;99381.53;;;19.47;42.63
66762;BME280;53672;48.176;16.338;2022-07-10T17:06:00;99383.91;;;19.49;42.77
66762;BME280;53672;48.176;16.338;2022-07-10T17:11:01;99392.19;;;19.32;42.74
66762;BME280;53672;48.176;16.338;2022-07-10T17:16:03;99388.34;;;19.33;43.17
66762;BME280;53672;48.176;16.338;2022-07-10T17:21:04;99411.41;;;19.23;43.27
66762;BME280;53672;48.176;16.338;2022-07-10T17:26:05;99400.09;;;19.04;43.93
66762;BME280;53672;48.176;16.338;2022-07-10T17:31:07;99389.41;;;18.90;44.64
66762;BME280;53672;48.176;16.338;2022-07-10T17:36:07;99386.19;;;18.88;44.60
66762;BME280;53672;48.176;16.338;2022-07-10T17:41:07;99381.69;;;18.84;44.30
66762;BME280;53672;48.176;16.338;2022-07-10T17:46:09;99381.75;;;18.75;44.26
66762;BME280;53672;48.176;16.338;2022-07-10T17:51:10;99399.81;;;18.59;44.34
66762;BME280;53672;48.176;16.338;2022-07-10T17:56:10;99415.06;;;18.43;44.18
66762;BME280;53672;48.176;16.338;2022-07-10T18:01:12;99417.34;;;18.32;44.90
66762;BME280;53672;48.176;16.338;2022-07-10T18:06:13;99418.47;;;18.31;45.20
66762;BME280;53672;48.176;16.338;2022-07-10T18:11:14;99418.31;;;18.28;46.05
66762;BME280;53672;48.176;16.338;2022-07-10T18:16:16;99412.38;;;18.25;45.70
66762;BME280;53672;48.176;16.338;2022-07-10T18:21:17;99439.22;;;18.15;45.33
66762;BME280;53672;48.176;16.338;2022-07-10T18:26:17;99445.78;;;18.05;46.40
66762;BME280;53672;48.176;16.338;2022-07-10T18:31:19;99447.84;;;17.91;46.19
66762;BME280;53672;48.176;16.338;2022-07-10T18:36:20;99440.63;;;17.78;46.59
66762;BME280;53672;48.176;16.338;2022-07-10T18:41:21;99446.72;;;17.66;46.74
66762;BME280;53672;48.176;16.338;2022-07-10T18:46:23;99460.34;;;17.58;47.05
66762;BME280;53672;48.176;16.338;2022-07-10T18:51:23;99463.41;;;17.56;47.42
66762;BME280;53672;48.176;16.338;2022-07-10T18:56:24;99471.84;;;17.55;47.92
66762;BME280;53672;48.176;16.338;2022-07-10T19:01:26;99474.91;;;17.53;48.08
66762;BME280;53672;48.176;16.338;2022-07-10T19:06:26;99483.69;;;17.42;48.24
66762;BME280;53672;48.176;16.338;2022-07-10T19:11:27;99491.06;;;17.41;48.49
66762;BME280;53672;48.176;16.338;2022-07-10T19:16:29;99487.69;;;17.36;49.07
66762;BME280;53672;48.176;16.338;2022-07-10T19:21:29;99494.88;;;17.32;49.65
66762;BME280;53672;48.176;16.338;2022-07-10T19:26:30;99491.81;;;17.24;49.65
66762;BME280;53672;48.176;16.338;2022-07-10T19:31:32;99497.22;;;17.16;49.57
66762;BME280;53672;48.176;16.338;2022-07-10T19:36:32;99500.09;;;17.11;49.92
66762;BME280;53672;48.176;16.338;2022-07-10T19:41:33;99507.09;;;17.03;50.44
66762;BME280;53672;48.176;16.338;2022-07-10T19:46:35;99519.25;;;16.97;50.68
66762;BME280;53672;48.176;16.338;2022-07-10T19:51:35;99527.69;;;16.87;50.56
66762;BME280;53672;48.176;16.338;2022-07-10T19:56:35;99538.50;;;16.79;51.03
66762;BME280;53672;48.176;16.338;2022-07-10T20:01:37;99540.56;;;16.73;51.64
66762;BME280;53672;48.176;16.338;2022-07-10T20:06:38;99542.63;;;16.67;52.19
66762;BME280;53672;48.176;16.338;2022-07-10T20:11:38;99543.22;;;16.87;54.30
66762;BME280;53672;48.176;16.338;2022-07-10T20:16:40;99543.41;;;17.30;51.58
66762;BME280;53672;48.176;16.338;2022-07-10T20:21:41;99541.16;;;17.23;50.43
66762;BME280;53672;48.176;16.338;2022-07-10T20:26:42;99540.47;;;16.87;51.28
66762;BME280;53672;48.176;16.338;2022-07-10T20:31:43;99548.50;;;16.61;52.03
66762;BME280;53672;48.176;16.338;2022-07-10T20:36:44;99563.25;;;16.46;52.14
66762;BME280;53672;48.176;16.338;2022-07-10T20:41:44;99559.94;;;16.36;52.51
66762;BME280;53672;48.176;16.338;2022-07-10T20:46:46;99567.34;;;16.21;52.88
66762;BME280;53672;48.176;16.338;2022-07-10T20:51:47;99559.22;;;16.08;53.42
66762;BME280;53672;48.176;16.338;2022-07-10T20:56:47;99562.97;;;15.98;53.62
66762;BME280;53672;48.176;16.338;2022-07-10T21:01:49;99562.56;;;15.91;53.65
66762;BME280;53672;48.176;16.338;2022-07-10T21:06:49;99555.53;;;15.90;53.95
66762;BME280;53672;48.176;16.338;2022-07-10T21:11:50;99548.47;;;15.89;54.09
66762;BME280;53672;48.176;16.338;2022-07-10T21:16:52;99567.31;;;15.86;54.16
66762;BME280;53672;48.176;16.338;2022-07-10T21:21:52;99551.91;;;15.81;54.19
66762;BME280;53672;48.176;16.338;2022-07-10T21:26:53;99560.16;;;15.76;54.54
66762;BME280;53672;48.176;16.338;2022-07-10T21:31:54;99556.66;;;15.62;55.22
66762;BME280;53672;48.176;16.338;2022-07-10T21:36:55;99557.47;;;15.49;55.79
66762;BME280;53672;48.176;16.338;2022-07-10T21:41:55;99551.59;;;15.42;56.13
66762;BME280;53672;48.176;16.338;2022-07-10T21:46:57;99547.88;;;15.38;56.08
66762;BME280;53672;48.176;16.338;2022-07-10T21:51:57;99553.81;;;15.40;55.59
66762;BME280;53672;48.176;16.338;2022-07-10T21:56:58;99549.59;;;15.47;55.54
66762;BME280;53672;48.176;16.338;2022-07-10T22:02:00;99554.13;;;15.52;55.70
66762;BME280;53672;48.176;16.338;2022-07-10T22:07:00;99550.31;;;15.53;56.38
66762;BME280;53672;48.176;16.338;2022-07-10T22:12:01;99542.19;;;15.53;56.74
66762;BME280;53672;48.176;16.338;2022-07-10T22:17:03;99547.00;;;15.56;57.13
66762;BME280;53672;48.176;16.338;2022-07-10T22:22:04;99554.06;;;15.57;56.84
66762;BME280;53672;48.176;16.338;2022-07-10T22:27:05;99549.09;;;15.59;56.93
66762;BME280;53672;48.176;16.338;2022-07-10T22:32:07;99556.66;;;15.62;57.17
66762;BME280;53672;48.176;16.338;2022-07-10T22:37:08;99560.47;;;16.24;55.72
66762;BME280;53672;48.176;16.338;2022-07-10T22:42:08;99561.50;;;16.14;55.39
66762;BME280;53672;48.176;16.338;2022-07-10T22:47:10;99559.22;;;16.08;55.77
66762;BME280;53672;48.176;16.338;2022-07-10T22:52:10;99546.94;;;15.97;55.61
66762;BME280;53672;48.176;16.338;2022-07-10T22:57:11;99549.88;;;15.87;55.85
66762;BME280;53672;48.176;16.338;2022-07-10T23:02:13;99550.22;;;15.85;55.58
66762;BME280;53672;48.176;16.338;2022-07-10T23:07:14;99552.72;;;15.82;55.59
66762;BME280;53672;48.176;16.338;2022-07-10T23:12:14;99553.53;;;15.82;55.60
66762;BME280;53672;48.176;16.338;2022-07-10T23:17:16;99546.97;;;15.83;55.39
66762;BME280;53672;48.176;16.338;2022-07-10T23:22:16;99554.31;;;15.83;55.67
66762;BME280;53672;48.176;16.338;2022-07-10T23:27:17;99550.50;;;15.84;55.79
66762;BME280;53672;48.176;16.338;2022-07-10T23:32:19;99559.56;;;15.79;55.54
66762;BME280;53672;48.176;16.338;2022-07-10T23:37:19;99553.03;;;15.80;55.33
66762;BME280;53672;48.176;16.338;2022-07-10T23:42:20;99554.13;;;15.79;55.13
66762;BME280;53672;48.176;16.338;2022-07-10T23:47:22;99564.22;;;15.79;55.52
66762;BME280;53672;48.176;16.338;2022-07-10T23:52:23;99567.50;;;15.76;55.36
66762;BME280;53672;48.176;16.338;2022-07-10T23:57:23;99567.50;;;15.76;55.38
